createdAt,value
2023-04-25T00:01:55.637Z,6.53
2023-04-25T00:04:22.904Z,6.43
2023-04-25T00:06:49.674Z,7.17
2023-04-25T00:09:16.374Z,6.10
2023-04-25T00:11:42.872Z,6.93
2023-04-25T00:14:09.306Z,7.23
2023-04-25T00:16:36.530Z,6.97
2023-04-25T00:19:03.818Z,6.93
2023-04-25T00:21:32.495Z,6.80
2023-04-25T00:23:58.962Z,6.03
2023-04-25T00:26:25.989Z,7.80
2023-04-25T00:28:52.677Z,6.30
2023-04-25T00:31:19.133Z,5.80
2023-04-25T00:33:45.570Z,6.73
2023-04-25T00:36:12.333Z,6.33
2023-04-25T00:38:39.254Z,5.90
2023-04-25T00:41:08.415Z,6.77
2023-04-25T00:43:35.127Z,6.40
2023-04-25T00:46:02.038Z,6.47
2023-04-25T00:48:28.710Z,6.73
2023-04-25T00:50:59.366Z,6.07
2023-04-25T00:53:27.944Z,6.40
2023-04-25T00:55:55.116Z,6.37
2023-04-25T00:58:22.697Z,6.73
2023-04-25T01:00:51.169Z,6.27
2023-04-25T01:03:20.735Z,6.30
2023-04-25T01:05:48.209Z,5.60
2023-04-25T01:08:15.431Z,6.23
2023-04-25T01:10:41.953Z,6.13
2023-04-25T01:13:08.746Z,6.90
2023-04-25T01:15:36.736Z,6.30
2023-04-25T01:18:04.752Z,6.50
2023-04-25T01:20:33.360Z,5.67
2023-04-25T01:22:59.855Z,5.40
2023-04-25T01:25:26.856Z,5.63
2023-04-25T01:27:53.592Z,5.80
2023-04-25T01:30:20.282Z,5.63
2023-04-25T01:32:48.333Z,5.77
2023-04-25T01:35:14.849Z,5.10
2023-04-25T01:37:42.674Z,5.43
2023-04-25T01:40:13.763Z,6.10
2023-04-25T01:42:43.245Z,5.30
2023-04-25T01:45:11.785Z,4.83
2023-04-25T01:47:40.524Z,5.20
2023-04-25T01:50:08.770Z,6.13
2023-04-25T01:52:35.413Z,5.03
2023-04-25T01:55:05.534Z,5.47
2023-04-25T01:57:32.063Z,5.37
2023-04-25T02:00:01.956Z,5.30
2023-04-25T02:02:28.500Z,5.47
2023-04-25T02:04:55.592Z,3.90
2023-04-25T02:07:22.134Z,5.43
2023-04-25T02:09:48.861Z,5.63
2023-04-25T02:12:15.384Z,5.83
2023-04-25T02:14:41.812Z,4.63
2023-04-25T02:17:08.409Z,4.93
2023-04-25T02:19:34.994Z,5.10
2023-04-25T02:22:01.679Z,5.40
2023-04-25T02:24:28.961Z,5.33
2023-04-25T02:26:56.888Z,5.90
2023-04-25T02:29:24.141Z,5.97
2023-04-25T02:31:50.862Z,5.70
2023-04-25T02:34:17.422Z,5.80
2023-04-25T02:36:43.970Z,4.80
2023-04-25T02:39:11.313Z,6.37
2023-04-25T02:41:37.892Z,5.30
2023-04-25T02:44:04.360Z,5.23
2023-04-25T02:46:38.889Z,5.13
2023-04-25T02:49:07.263Z,5.07
2023-04-25T02:51:33.767Z,5.07
2023-04-25T02:54:00.315Z,5.10
2023-04-25T02:56:27.265Z,4.80
2023-04-25T02:58:54.683Z,5.40
2023-04-25T03:01:21.324Z,4.90
2023-04-25T03:03:47.964Z,5.00
2023-04-25T03:06:14.963Z,5.50
2023-04-25T03:08:41.370Z,6.10
2023-04-25T03:11:07.866Z,5.80
2023-04-25T03:13:34.288Z,5.20
2023-04-25T03:16:01.061Z,5.33
2023-04-25T03:18:27.561Z,5.20
2023-04-25T03:20:54.112Z,5.40
2023-04-25T03:23:20.541Z,5.50
2023-04-25T03:25:46.948Z,5.80
2023-04-25T03:28:13.495Z,7.37
2023-04-25T03:30:39.891Z,7.43
2023-04-25T03:33:06.412Z,6.70
2023-04-25T03:35:32.915Z,6.50
2023-04-25T03:37:59.349Z,6.73
2023-04-25T03:40:25.915Z,6.20
2023-04-25T03:42:52.346Z,5.13
2023-04-25T03:45:18.852Z,6.37
2023-04-25T03:47:45.444Z,5.63
2023-04-25T03:50:12.016Z,5.40
2023-04-25T03:52:38.541Z,5.70
2023-04-25T03:55:05.813Z,6.00
2023-04-25T03:57:32.315Z,5.83
2023-04-25T03:59:58.679Z,5.13
2023-04-25T04:02:25.333Z,5.43
2023-04-25T04:04:52.061Z,6.40
2023-04-25T04:07:18.810Z,7.47
2023-04-25T04:09:45.281Z,6.33
2023-04-25T04:12:11.671Z,6.13
2023-04-25T04:14:38.071Z,6.40
2023-04-25T04:17:04.534Z,6.60
2023-04-25T04:19:30.917Z,5.57
2023-04-25T04:21:57.293Z,5.37
2023-04-25T04:24:23.766Z,6.30
2023-04-25T04:26:51.624Z,7.07
2023-04-25T04:29:21.807Z,7.10
2023-04-25T04:31:50.722Z,5.87
2023-04-25T04:34:18.860Z,6.30
2023-04-25T04:36:47.210Z,5.37
2023-04-25T04:39:14.659Z,5.20
2023-04-25T04:41:41.479Z,7.00
2023-04-25T04:44:09.851Z,6.53
2023-04-25T04:46:38.838Z,6.40
2023-04-25T04:49:18.320Z,5.63
2023-04-25T04:51:47.897Z,7.43
2023-04-25T04:54:14.371Z,6.70
2023-04-25T04:56:41.228Z,6.50
2023-04-25T04:59:08.068Z,7.37
2023-04-25T05:01:36.882Z,7.57
2023-04-25T05:04:04.450Z,8.33
2023-04-25T05:06:32.187Z,7.87
2023-04-25T05:08:58.948Z,7.20
2023-04-25T05:11:29.118Z,9.33
2023-04-25T05:13:55.795Z,9.23
2023-04-25T05:16:22.199Z,7.40
2023-04-25T05:18:48.963Z,6.57
2023-04-25T05:21:15.396Z,7.10
2023-04-25T05:23:41.803Z,6.20
2023-04-25T05:26:14.500Z,7.23
2023-04-25T05:28:42.535Z,6.20
2023-04-25T05:31:11.321Z,6.77
2023-04-25T05:33:37.833Z,7.70
2023-04-25T05:36:04.500Z,8.10
2023-04-25T05:38:33.265Z,7.30
2023-04-25T05:41:01.202Z,6.70
2023-04-25T05:43:27.595Z,7.30
2023-04-25T05:45:54.164Z,6.97
2023-04-25T05:48:20.831Z,7.10
2023-04-25T05:50:47.259Z,6.77
2023-04-25T05:53:13.746Z,7.43
2023-04-25T05:55:40.184Z,6.60
2023-04-25T05:58:09.942Z,6.70
2023-04-25T06:00:36.552Z,7.00
2023-04-25T06:03:03.444Z,6.93
2023-04-25T06:05:30.264Z,6.93
2023-04-25T06:07:56.855Z,7.00
2023-04-25T06:10:23.612Z,6.60
2023-04-25T06:12:50.084Z,6.73
2023-04-25T06:15:27.302Z,6.13
2023-04-25T06:17:56.431Z,6.43
2023-04-25T06:20:24.977Z,7.10
2023-04-25T06:22:55.132Z,7.40
2023-04-25T06:25:21.985Z,6.27
2023-04-25T06:27:48.620Z,6.17
2023-04-25T06:30:15.093Z,6.23
2023-04-25T06:32:41.697Z,7.47
2023-04-25T06:35:08.521Z,6.83
2023-04-25T06:37:34.953Z,7.43
2023-04-25T06:40:01.333Z,6.80
2023-04-25T06:42:27.727Z,7.90
2023-04-25T06:44:54.090Z,7.00
2023-04-25T06:47:20.558Z,7.50
2023-04-25T06:49:46.981Z,6.93
2023-04-25T06:52:13.457Z,6.97
2023-04-25T06:54:39.888Z,8.30
2023-04-25T06:57:06.403Z,7.77
2023-04-25T06:59:33.816Z,6.30
2023-04-25T07:02:00.580Z,7.10
2023-04-25T07:04:27.344Z,6.67
2023-04-25T07:06:54.333Z,8.20
2023-04-25T07:09:20.810Z,8.63
2023-04-25T07:11:47.296Z,8.80
2023-04-25T07:14:13.772Z,7.40
2023-04-25T07:16:40.741Z,7.90
2023-04-25T07:19:07.256Z,9.30
2023-04-25T07:21:33.881Z,7.60
2023-04-25T07:24:00.438Z,7.37
2023-04-25T07:26:26.839Z,7.33
2023-04-25T07:28:53.347Z,7.97
2023-04-25T07:31:19.731Z,7.00
2023-04-25T07:33:46.929Z,7.33
2023-04-25T07:36:13.669Z,7.50
2023-04-25T07:38:40.541Z,6.67
2023-04-25T07:41:07.103Z,6.20
2023-04-25T07:43:33.758Z,6.70
2023-04-25T07:46:00.229Z,6.03
2023-04-25T07:48:26.699Z,5.20
2023-04-25T07:50:53.272Z,5.70
2023-04-25T07:53:19.853Z,6.57
2023-04-25T07:55:46.322Z,6.17
2023-04-25T07:58:13.030Z,5.57
2023-04-25T08:00:39.620Z,5.53
2023-04-25T08:03:06.217Z,5.87
2023-04-25T08:05:32.825Z,5.43
2023-04-25T08:08:00.204Z,5.40
2023-04-25T08:10:26.647Z,5.40
2023-04-25T08:12:53.100Z,5.10
2023-04-25T08:15:19.569Z,5.60
2023-04-25T08:17:46.487Z,4.67
2023-04-25T08:20:13.306Z,4.10
2023-04-25T08:22:39.781Z,5.03
2023-04-25T08:25:06.402Z,4.23
2023-04-25T08:27:32.816Z,4.83
2023-04-25T08:29:59.732Z,3.97
2023-04-25T08:32:26.403Z,4.43
2023-04-25T08:34:55.077Z,4.90
2023-04-25T08:37:21.824Z,4.33
2023-04-25T08:39:53.405Z,4.50
2023-04-25T08:42:20.673Z,4.17
2023-04-25T08:44:49.472Z,5.37
2023-04-25T08:47:15.956Z,5.00
2023-04-25T08:49:47.102Z,3.37
2023-04-25T08:52:14.978Z,4.57
2023-04-25T08:54:49.267Z,3.80
2023-04-25T08:57:16.453Z,3.97
2023-04-25T08:59:46.661Z,3.90
2023-04-25T09:02:18.848Z,3.90
2023-04-25T09:04:45.729Z,4.40
2023-04-25T09:07:12.325Z,5.53
2023-04-25T09:09:38.788Z,4.77
2023-04-25T09:12:06.303Z,4.80
2023-04-25T09:14:32.990Z,4.27
2023-04-25T09:17:01.129Z,4.43
2023-04-25T09:19:40.448Z,4.20
2023-04-25T09:22:08.534Z,4.60
2023-04-25T09:24:41.552Z,4.90
2023-04-25T09:27:10.571Z,3.30
2023-04-25T09:29:39.251Z,3.90
2023-04-25T09:32:12.826Z,3.10
2023-04-25T09:34:52.682Z,3.20
2023-04-25T09:37:21.479Z,3.10
2023-04-25T09:39:54.926Z,3.33
2023-04-25T09:42:26.407Z,3.50
2023-04-25T09:44:54.903Z,3.10
2023-04-25T09:47:24.225Z,3.23
2023-04-25T09:49:51.984Z,4.33
2023-04-25T09:52:26.431Z,3.80
2023-04-25T09:54:53.451Z,4.07
2023-04-25T09:57:22.430Z,3.93
2023-04-25T09:59:51.327Z,3.53
2023-04-25T10:02:21.342Z,3.20
2023-04-25T10:04:55.522Z,4.70
2023-04-25T10:07:27.264Z,5.00
2023-04-25T10:10:02.794Z,3.57
2023-04-25T10:12:29.847Z,4.20
2023-04-25T10:14:56.331Z,3.73
2023-04-25T10:17:23.540Z,4.83
2023-04-25T10:19:50.453Z,3.17
2023-04-25T10:22:27.857Z,4.33
2023-04-25T10:24:54.500Z,4.20
2023-04-25T10:27:21.141Z,4.10
2023-04-25T10:30:16.648Z,4.20
2023-04-25T10:32:44.328Z,3.83
2023-04-25T10:35:34.923Z,3.70
2023-04-25T10:38:04.300Z,3.70
2023-04-25T10:40:31.374Z,4.17
2023-04-25T10:43:32.826Z,3.60
2023-04-25T10:46:02.967Z,3.33
2023-04-25T10:48:31.310Z,3.93
2023-04-25T10:51:17.646Z,4.17
2023-04-25T10:53:56.442Z,3.67
2023-04-25T10:56:45.097Z,3.63
2023-04-25T10:59:17.142Z,4.30
2023-04-25T11:01:45.645Z,3.30
2023-04-25T11:04:33.233Z,3.60
2023-04-25T11:07:07.809Z,3.07
2023-04-25T11:09:36.199Z,3.87
2023-04-25T11:12:02.939Z,3.97
2023-04-25T11:14:29.438Z,2.90
2023-04-25T11:17:00.689Z,3.27
2023-04-25T11:19:28.782Z,3.33
2023-04-25T11:22:02.885Z,2.67
2023-04-25T11:24:31.908Z,2.63
2023-04-25T11:27:05.343Z,3.17
2023-04-25T11:29:35.677Z,2.97
2023-04-25T11:32:03.311Z,3.00
2023-04-25T11:34:31.857Z,2.33
2023-04-25T11:36:58.762Z,2.57
2023-04-25T11:39:26.761Z,2.57
2023-04-25T11:41:53.989Z,2.70
2023-04-25T11:44:21.171Z,2.33
2023-04-25T11:46:48.207Z,3.57
2023-04-25T11:49:15.847Z,3.50
2023-04-25T11:51:44.256Z,3.10
2023-04-25T11:54:12.761Z,3.03
2023-04-25T11:56:43.213Z,3.50
2023-04-25T11:59:10.715Z,2.97
2023-04-25T12:01:39.572Z,2.87
2023-04-25T12:04:25.876Z,2.30
2023-04-25T12:06:54.494Z,2.90
2023-04-25T12:09:28.227Z,3.07
2023-04-25T12:11:56.599Z,2.67
2023-04-25T12:14:30.919Z,2.10
2023-04-25T12:16:59.426Z,2.53
2023-04-25T12:19:26.926Z,3.40
2023-04-25T12:21:58.611Z,2.80
2023-04-25T12:24:28.407Z,2.47
2023-04-25T12:27:05.152Z,2.30
2023-04-25T12:29:42.133Z,3.37
2023-04-25T12:32:14.763Z,2.73
2023-04-25T12:34:41.204Z,3.50
2023-04-25T12:37:07.632Z,3.00
2023-04-25T12:39:34.107Z,2.83
2023-04-25T12:42:00.729Z,2.50
2023-04-25T12:44:27.693Z,2.77
2023-04-25T12:46:55.520Z,2.53
2023-04-25T12:49:22.056Z,2.23
2023-04-25T12:51:48.489Z,2.60
2023-04-25T12:54:15.473Z,3.83
2023-04-25T12:56:42.273Z,3.33
2023-04-25T12:59:08.818Z,3.10
2023-04-25T13:01:36.511Z,2.87
2023-04-25T13:04:03.584Z,3.27
2023-04-25T13:06:33.255Z,2.37
2023-04-25T13:08:59.746Z,3.10
2023-04-25T13:11:26.234Z,2.67
2023-04-25T13:13:53.245Z,2.97
2023-04-25T13:16:21.958Z,3.20
2023-04-25T13:18:48.813Z,2.80
2023-04-25T13:21:15.310Z,2.70
2023-04-25T13:23:43.753Z,3.67
2023-04-25T13:26:10.201Z,2.87
2023-04-25T13:28:36.621Z,2.67
2023-04-25T13:31:03.095Z,2.53
2023-04-25T13:33:29.965Z,2.40
2023-04-25T13:35:58.020Z,2.80
2023-04-25T13:38:26.340Z,2.53
2023-04-25T13:40:53.710Z,2.10
2023-04-25T13:43:22.698Z,2.30
2023-04-25T13:45:52.453Z,2.03
2023-04-25T13:48:19.881Z,2.70
2023-04-25T13:50:46.605Z,2.83
2023-04-25T13:53:13.309Z,2.33
2023-04-25T13:55:39.819Z,2.10
2023-04-25T13:58:10.772Z,2.40
2023-04-25T14:00:39.966Z,2.20
2023-04-25T14:03:08.788Z,2.03
2023-04-25T14:05:40.017Z,2.40
2023-04-25T14:08:08.032Z,2.07
2023-04-25T14:10:35.101Z,2.13
2023-04-25T14:13:02.170Z,2.07
2023-04-25T14:15:28.782Z,2.20
2023-04-25T14:17:55.364Z,2.90
2023-04-25T14:20:22.372Z,1.93
2023-04-25T14:22:48.810Z,2.47
2023-04-25T14:25:15.327Z,2.37
2023-04-25T14:27:41.882Z,2.87
2023-04-25T14:30:10.196Z,3.00
2023-04-25T14:32:36.758Z,2.90
2023-04-25T14:35:03.359Z,2.60
2023-04-25T14:37:29.856Z,2.70
2023-04-25T14:39:56.282Z,2.40
2023-04-25T14:42:22.675Z,3.07
2023-04-25T14:44:49.126Z,3.13
2023-04-25T14:47:16.630Z,2.50
2023-04-25T14:49:43.156Z,2.50
2023-04-25T14:52:09.613Z,2.37
2023-04-25T14:54:36.307Z,3.30
2023-04-25T14:57:03.320Z,2.70
2023-04-25T14:59:29.827Z,2.13
2023-04-25T15:01:59.482Z,3.97
2023-04-25T15:04:26.805Z,2.50
2023-04-25T15:06:53.324Z,2.97
2023-04-25T15:09:20.341Z,2.13
2023-04-25T15:11:46.842Z,2.60
2023-04-25T15:14:13.282Z,2.50
2023-04-25T15:16:39.756Z,2.53
2023-04-25T15:19:06.436Z,2.53
2023-04-25T15:21:33.075Z,3.00
2023-04-25T15:23:59.510Z,2.70
2023-04-25T15:26:26.017Z,2.20
2023-04-25T15:28:53.476Z,2.20
2023-04-25T15:31:20.375Z,1.70
2023-04-25T15:33:49.957Z,2.10
2023-04-25T15:36:18.410Z,3.00
2023-04-25T15:38:44.925Z,2.13
2023-04-25T15:41:11.477Z,3.10
2023-04-25T15:43:38.766Z,2.43
2023-04-25T15:46:06.547Z,2.20
2023-04-25T15:48:33.455Z,2.60
2023-04-25T15:51:00.993Z,2.50
2023-04-25T15:53:27.524Z,2.40
2023-04-25T15:55:54.049Z,2.37
2023-04-25T15:58:20.557Z,2.50
2023-04-25T16:00:49.067Z,2.10
2023-04-25T16:03:15.692Z,3.10
2023-04-25T16:05:42.593Z,2.77
2023-04-25T16:08:09.146Z,2.40
2023-04-25T16:10:36.592Z,2.10
2023-04-25T16:13:03.748Z,2.40
2023-04-25T16:15:32.162Z,2.23
2023-04-25T16:17:59.408Z,2.33
2023-04-25T16:20:25.916Z,1.97
2023-04-25T16:22:52.275Z,2.70
2023-04-25T16:25:18.769Z,1.60
2023-04-25T16:27:45.424Z,1.83
2023-04-25T16:30:12.070Z,1.70
2023-04-25T16:32:39.874Z,1.77
2023-04-25T16:35:07.163Z,1.43
2023-04-25T16:37:33.605Z,1.43
2023-04-25T16:40:00.045Z,1.43
2023-04-25T16:42:26.769Z,1.70
2023-04-25T16:44:53.195Z,2.00
2023-04-25T16:47:20.705Z,1.73
2023-04-25T16:49:47.257Z,1.73
2023-04-25T16:52:14.274Z,1.10
2023-04-25T16:54:41.038Z,1.40
2023-04-25T16:57:10.424Z,1.50
2023-04-25T16:59:38.163Z,3.00
2023-04-25T17:02:05.046Z,4.00
2023-04-25T17:04:31.716Z,2.00
2023-04-25T17:06:58.510Z,1.93
2023-04-25T17:09:25.041Z,2.40
2023-04-25T17:11:51.604Z,2.10
2023-04-25T17:14:18.063Z,2.10
2023-04-25T17:16:44.588Z,1.70
2023-04-25T17:19:11.067Z,2.30
2023-04-25T17:21:37.585Z,2.70
2023-04-25T17:24:06.483Z,2.10
2023-04-25T17:26:33.010Z,2.70
2023-04-25T17:28:59.473Z,3.20
2023-04-25T17:31:26.112Z,3.50
2023-04-25T17:33:52.561Z,2.20
2023-04-25T17:36:19.074Z,2.17
2023-04-25T17:38:45.617Z,2.83
2023-04-25T17:41:13.230Z,2.20
2023-04-25T17:43:39.809Z,1.90
2023-04-25T17:46:06.686Z,2.20
2023-04-25T17:48:33.090Z,2.30
2023-04-25T17:50:59.723Z,2.20
2023-04-25T17:53:26.395Z,2.27
2023-04-25T17:55:52.930Z,1.87
2023-04-25T17:58:19.337Z,2.57
2023-04-25T18:00:46.396Z,2.50
2023-04-25T18:03:12.835Z,2.30
2023-04-25T18:05:39.365Z,2.13
2023-04-25T18:08:06.791Z,2.17
2023-04-25T18:10:34.377Z,2.33
2023-04-25T18:13:00.912Z,2.10
2023-04-25T18:15:28.626Z,2.50
2023-04-25T18:17:55.100Z,2.43
2023-04-25T18:20:22.210Z,2.40
2023-04-25T18:22:48.622Z,2.77
2023-04-25T18:25:15.497Z,1.83
2023-04-25T18:27:42.366Z,2.60
2023-04-25T18:30:10.816Z,2.23
2023-04-25T18:32:38.024Z,2.30
2023-04-25T18:35:06.099Z,2.60
2023-04-25T18:37:32.569Z,2.87
2023-04-25T18:39:59.272Z,2.10
2023-04-25T18:42:25.818Z,2.80
2023-04-25T18:44:52.460Z,2.60
2023-04-25T18:47:18.892Z,2.80
2023-04-25T18:49:45.591Z,2.27
2023-04-25T18:52:14.996Z,2.57
2023-04-25T18:54:41.482Z,2.10
2023-04-25T18:57:08.023Z,1.73
2023-04-25T18:59:34.436Z,1.83
2023-04-25T19:02:01.981Z,2.20
2023-04-25T19:04:29.700Z,2.80
2023-04-25T19:06:56.239Z,2.60
2023-04-25T19:09:23.261Z,3.00
2023-04-25T19:11:49.815Z,3.10
2023-04-25T19:14:16.240Z,2.83
2023-04-25T19:16:42.840Z,3.00
2023-04-25T19:19:09.389Z,3.17
2023-04-25T19:21:36.285Z,2.97
2023-04-25T19:24:06.951Z,3.33
2023-04-25T19:26:33.460Z,3.20
2023-04-25T19:29:05.874Z,2.70
2023-04-25T19:31:33.865Z,4.03
2023-04-25T19:34:00.309Z,3.03
2023-04-25T19:36:27.736Z,2.37
2023-04-25T19:38:54.287Z,2.67
2023-04-25T19:41:21.379Z,3.37
2023-04-25T19:43:48.072Z,3.27
2023-04-25T19:46:14.534Z,3.80
2023-04-25T19:48:41.445Z,4.10
2023-04-25T19:51:09.094Z,3.90
2023-04-25T19:53:35.663Z,4.53
2023-04-25T19:56:02.860Z,5.27
2023-04-25T19:58:29.764Z,4.97
2023-04-25T20:00:57.601Z,4.97
2023-04-25T20:03:24.351Z,5.77
2023-04-25T20:05:50.936Z,4.80
2023-04-25T20:08:17.340Z,4.60
2023-04-25T20:10:43.782Z,4.63
2023-04-25T20:13:10.726Z,4.50
2023-04-25T20:15:37.876Z,4.80
2023-04-25T20:18:04.614Z,4.10
2023-04-25T20:20:31.080Z,4.00
2023-04-25T20:22:57.597Z,3.67
2023-04-25T20:25:24.146Z,3.80
2023-04-25T20:27:50.532Z,4.03
2023-04-25T20:30:17.063Z,3.80
2023-04-25T20:32:43.489Z,3.37
2023-04-25T20:35:10.183Z,3.33
2023-04-25T20:37:37.455Z,3.40
2023-04-25T20:40:06.483Z,2.70
2023-04-25T20:42:33.043Z,2.60
2023-04-25T20:44:59.521Z,2.50
2023-04-25T20:47:26.093Z,2.20
2023-04-25T20:49:52.946Z,2.70
2023-04-25T20:52:19.416Z,2.47
2023-04-25T20:54:50.542Z,3.00
2023-04-25T20:57:17.503Z,2.70
2023-04-25T20:59:43.928Z,2.40
2023-04-25T21:02:12.681Z,2.07
2023-04-25T21:04:39.374Z,2.40
2023-04-25T21:07:05.905Z,2.30
2023-04-25T21:09:32.345Z,3.43
2023-04-25T21:11:58.775Z,2.67
2023-04-25T21:14:25.541Z,3.73
2023-04-25T21:16:52.106Z,4.37
2023-04-25T21:19:18.616Z,3.77
2023-04-25T21:21:46.116Z,3.63
2023-04-25T21:24:14.370Z,4.27
2023-04-25T21:26:40.874Z,4.57
2023-04-25T21:29:07.370Z,4.50
2023-04-25T21:31:33.931Z,4.60
2023-04-25T21:34:00.680Z,3.80
2023-04-25T21:36:27.768Z,4.07
2023-04-25T21:38:54.492Z,4.17
2023-04-25T21:41:21.223Z,2.63
2023-04-25T21:43:47.638Z,2.90
2023-04-25T21:48:43.417Z,2.23
2023-04-25T21:51:09.930Z,2.70
2023-04-25T21:53:36.679Z,2.10
2023-04-25T21:56:03.251Z,2.07
2023-04-25T21:58:29.674Z,1.80
2023-04-25T22:00:56.211Z,1.83
2023-04-25T22:03:22.763Z,2.10
2023-04-25T22:05:49.263Z,1.80
2023-04-25T22:08:15.837Z,1.90
2023-04-25T22:10:42.643Z,2.17
2023-04-25T22:13:10.016Z,2.37
2023-04-25T22:15:36.424Z,2.30
2023-04-25T22:18:05.514Z,2.80
2023-04-25T22:20:32.072Z,2.20
2023-04-25T22:22:58.628Z,2.50
2023-04-25T22:25:25.199Z,2.30
2023-04-25T22:27:51.650Z,2.47
2023-04-25T22:30:18.439Z,2.30
2023-04-25T22:32:44.947Z,1.97
2023-04-25T22:35:12.073Z,2.10
2023-04-25T22:37:41.380Z,2.20
2023-04-25T22:40:09.148Z,2.40
2023-04-25T22:42:40.232Z,2.57
2023-04-25T22:45:08.141Z,1.90
2023-04-25T22:47:36.330Z,1.77
2023-04-25T22:50:06.405Z,1.97
2023-04-25T22:52:35.490Z,1.73
2023-04-25T22:55:03.117Z,2.67
2023-04-25T22:57:30.192Z,2.07
2023-04-25T22:59:57.543Z,2.67
2023-04-25T23:02:25.071Z,2.57
2023-04-25T23:04:53.240Z,2.17
2023-04-25T23:07:20.454Z,2.30
2023-04-25T23:09:46.946Z,2.00
2023-04-25T23:12:13.458Z,2.10
2023-04-25T23:14:40.019Z,2.20
2023-04-25T23:17:06.685Z,2.50
2023-04-25T23:19:34.352Z,2.17
2023-04-25T23:22:00.878Z,2.07
2023-04-25T23:24:27.275Z,1.90
2023-04-25T23:26:53.666Z,2.43
2023-04-25T23:29:20.104Z,2.10
2023-04-25T23:31:46.490Z,2.70
2023-04-25T23:34:12.861Z,2.27
2023-04-25T23:36:39.360Z,1.90
2023-04-25T23:39:05.861Z,2.00
2023-04-25T23:41:32.675Z,1.97
2023-04-25T23:43:59.244Z,2.00
2023-04-25T23:46:28.285Z,1.87
2023-04-25T23:48:54.720Z,1.70
2023-04-25T23:51:21.378Z,2.00
2023-04-25T23:53:47.748Z,2.00
2023-04-25T23:56:14.178Z,2.53
2023-04-25T23:58:40.768Z,2.30
